sensor_id;sensor_type;location;lat;lon;timestamp;P1;durP1;ratioP1;P2;durP2;ratioP2
10947;SDS011;5526;42.070;24.752;2022-12-29T00:01:42;15.50;;;13.75;;
10947;SDS011;5526;42.070;24.752;2022-12-29T00:04:11;17.10;;;13.77;;
10947;SDS011;5526;42.070;24.752;2022-12-29T00:06:40;15.13;;;13.65;;
10947;SDS011;5526;42.070;24.752;2022-12-29T00:09:09;17.67;;;14.18;;
10947;SDS011;5526;42.070;24.752;2022-12-29T00:11:38;17.23;;;14.90;;
10947;SDS011;5526;42.070;24.752;2022-12-29T00:14:07;16.55;;;14.43;;
10947;SDS011;5526;42.070;24.752;2022-12-29T00:16:54;15.75;;;14.15;;
10947;SDS011;5526;42.070;24.752;2022-12-29T00:19:23;15.85;;;13.90;;
10947;SDS011;5526;42.070;24.752;2022-12-29T00:22:08;18.33;;;15.27;;
10947;SDS011;5526;42.070;24.752;2022-12-29T00:24:54;19.58;;;16.33;;
10947;SDS011;5526;42.070;24.752;2022-12-29T00:27:39;17.23;;;15.32;;
10947;SDS011;5526;42.070;24.752;2022-12-29T00:30:24;21.30;;;17.70;;
10947;SDS011;5526;42.070;24.752;2022-12-29T00:33:11;18.42;;;16.17;;
10947;SDS011;5526;42.070;24.752;2022-12-29T00:35:57;18.48;;;15.85;;
10947;SDS011;5526;42.070;24.752;2022-12-29T00:38:27;18.25;;;16.35;;
10947;SDS011;5526;42.070;24.752;2022-12-29T00:41:13;16.30;;;14.68;;
10947;SDS011;5526;42.070;24.752;2022-12-29T00:43:58;18.88;;;16.48;;
10947;SDS011;5526;42.070;24.752;2022-12-29T00:46:32;18.50;;;16.15;;
10947;SDS011;5526;42.070;24.752;2022-12-29T00:49:02;18.80;;;16.38;;
10947;SDS011;5526;42.070;24.752;2022-12-29T00:51:47;18.40;;;16.42;;
10947;SDS011;5526;42.070;24.752;2022-12-29T00:54:15;17.42;;;15.75;;
10947;SDS011;5526;42.070;24.752;2022-12-29T00:56:45;17.83;;;15.93;;
10947;SDS011;5526;42.070;24.752;2022-12-29T00:59:14;20.92;;;17.58;;
10947;SDS011;5526;42.070;24.752;2022-12-29T01:01:42;26.70;;;23.52;;
10947;SDS011;5526;42.070;24.752;2022-12-29T01:04:12;23.27;;;20.48;;
10947;SDS011;5526;42.070;24.752;2022-12-29T01:06:41;20.55;;;18.25;;
10947;SDS011;5526;42.070;24.752;2022-12-29T01:09:09;17.98;;;15.88;;
10947;SDS011;5526;42.070;24.752;2022-12-29T01:11:54;16.65;;;14.18;;
10947;SDS011;5526;42.070;24.752;2022-12-29T01:14:22;16.45;;;14.77;;
10947;SDS011;5526;42.070;24.752;2022-12-29T01:16:50;16.63;;;14.85;;
10947;SDS011;5526;42.070;24.752;2022-12-29T01:19:21;18.55;;;16.45;;
10947;SDS011;5526;42.070;24.752;2022-12-29T01:21:49;18.35;;;16.33;;
10947;SDS011;5526;42.070;24.752;2022-12-29T01:24:17;19.55;;;16.40;;
10947;SDS011;5526;42.070;24.752;2022-12-29T01:26:46;20.70;;;17.85;;
10947;SDS011;5526;42.070;24.752;2022-12-29T01:29:15;19.10;;;17.05;;
10947;SDS011;5526;42.070;24.752;2022-12-29T01:31:43;19.58;;;16.92;;
10947;SDS011;5526;42.070;24.752;2022-12-29T01:34:10;18.10;;;16.30;;
10947;SDS011;5526;42.070;24.752;2022-12-29T01:36:40;18.45;;;16.48;;
10947;SDS011;5526;42.070;24.752;2022-12-29T01:39:08;16.52;;;14.82;;
10947;SDS011;5526;42.070;24.752;2022-12-29T01:41:36;17.63;;;15.80;;
10947;SDS011;5526;42.070;24.752;2022-12-29T01:47:04;17.42;;;15.70;;
10947;SDS011;5526;42.070;24.752;2022-12-29T01:49:34;17.50;;;15.38;;
10947;SDS011;5526;42.070;24.752;2022-12-29T01:52:04;17.08;;;15.30;;
10947;SDS011;5526;42.070;24.752;2022-12-29T01:54:36;22.50;;;15.98;;
10947;SDS011;5526;42.070;24.752;2022-12-29T01:57:09;17.05;;;14.90;;
10947;SDS011;5526;42.070;24.752;2022-12-29T01:59:41;17.73;;;15.77;;
10947;SDS011;5526;42.070;24.752;2022-12-29T02:02:15;18.98;;;16.30;;
10947;SDS011;5526;42.070;24.752;2022-12-29T02:04:44;19.65;;;17.55;;
10947;SDS011;5526;42.070;24.752;2022-12-29T02:07:16;20.20;;;16.88;;
10947;SDS011;5526;42.070;24.752;2022-12-29T02:09:46;19.88;;;17.73;;
10947;SDS011;5526;42.070;24.752;2022-12-29T02:12:16;20.17;;;18.17;;
10947;SDS011;5526;42.070;24.752;2022-12-29T02:14:44;20.70;;;18.50;;
10947;SDS011;5526;42.070;24.752;2022-12-29T02:17:14;19.58;;;17.40;;
10947;SDS011;5526;42.070;24.752;2022-12-29T02:20:01;19.77;;;17.40;;
10947;SDS011;5526;42.070;24.752;2022-12-29T02:22:50;20.08;;;17.80;;
10947;SDS011;5526;42.070;24.752;2022-12-29T02:25:44;21.58;;;18.42;;
10947;SDS011;5526;42.070;24.752;2022-12-29T02:28:31;23.42;;;20.60;;
10947;SDS011;5526;42.070;24.752;2022-12-29T02:31:21;23.63;;;20.27;;
10947;SDS011;5526;42.070;24.752;2022-12-29T02:34:00;22.35;;;19.10;;
10947;SDS011;5526;42.070;24.752;2022-12-29T02:36:39;21.92;;;19.10;;
10947;SDS011;5526;42.070;24.752;2022-12-29T02:39:12;19.58;;;17.50;;
10947;SDS011;5526;42.070;24.752;2022-12-29T02:41:46;20.05;;;16.95;;
10947;SDS011;5526;42.070;24.752;2022-12-29T02:44:24;19.05;;;17.13;;
10947;SDS011;5526;42.070;24.752;2022-12-29T02:47:04;18.52;;;16.25;;
10947;SDS011;5526;42.070;24.752;2022-12-29T02:49:40;18.58;;;16.65;;
10947;SDS011;5526;42.070;24.752;2022-12-29T02:52:16;18.33;;;16.27;;
10947;SDS011;5526;42.070;24.752;2022-12-29T02:54:48;18.58;;;16.25;;
10947;SDS011;5526;42.070;24.752;2022-12-29T02:57:27;19.10;;;17.10;;
10947;SDS011;5526;42.070;24.752;2022-12-29T02:59:58;20.20;;;17.38;;
10947;SDS011;5526;42.070;24.752;2022-12-29T03:05:41;19.15;;;16.80;;
10947;SDS011;5526;42.070;24.752;2022-12-29T03:08:23;18.25;;;16.02;;
10947;SDS011;5526;42.070;24.752;2022-12-29T03:10:59;18.20;;;16.17;;
10947;SDS011;5526;42.070;24.752;2022-12-29T03:13:33;17.30;;;15.48;;
10947;SDS011;5526;42.070;24.752;2022-12-29T03:16:23;18.60;;;16.70;;
10947;SDS011;5526;42.070;24.752;2022-12-29T03:19:04;17.60;;;15.00;;
10947;SDS011;5526;42.070;24.752;2022-12-29T03:21:37;16.77;;;15.02;;
10947;SDS011;5526;42.070;24.752;2022-12-29T03:24:27;17.05;;;15.25;;
10947;SDS011;5526;42.070;24.752;2022-12-29T03:26:58;16.52;;;14.77;;
10947;SDS011;5526;42.070;24.752;2022-12-29T03:29:30;17.13;;;15.32;;
10947;SDS011;5526;42.070;24.752;2022-12-29T03:32:03;16.58;;;14.35;;
10947;SDS011;5526;42.070;24.752;2022-12-29T03:34:35;16.95;;;15.07;;
10947;SDS011;5526;42.070;24.752;2022-12-29T03:37:06;17.58;;;14.40;;
10947;SDS011;5526;42.070;24.752;2022-12-29T03:39:38;16.90;;;15.10;;
10947;SDS011;5526;42.070;24.752;2022-12-29T03:42:07;18.58;;;14.57;;
10947;SDS011;5526;42.070;24.752;2022-12-29T03:44:38;17.77;;;15.23;;
10947;SDS011;5526;42.070;24.752;2022-12-29T03:47:09;17.17;;;14.65;;
10947;SDS011;5526;42.070;24.752;2022-12-29T03:49:39;17.45;;;15.38;;
10947;SDS011;5526;42.070;24.752;2022-12-29T03:52:07;16.85;;;14.88;;
10947;SDS011;5526;42.070;24.752;2022-12-29T03:54:35;19.48;;;15.75;;
10947;SDS011;5526;42.070;24.752;2022-12-29T03:57:03;17.02;;;15.25;;
10947;SDS011;5526;42.070;24.752;2022-12-29T03:59:31;19.42;;;15.20;;
10947;SDS011;5526;42.070;24.752;2022-12-29T04:01:59;17.23;;;15.30;;
10947;SDS011;5526;42.070;24.752;2022-12-29T04:04:26;17.55;;;15.65;;
10947;SDS011;5526;42.070;24.752;2022-12-29T04:06:56;24.73;;;18.48;;
10947;SDS011;5526;42.070;24.752;2022-12-29T04:09:24;21.00;;;17.17;;
10947;SDS011;5526;42.070;24.752;2022-12-29T04:11:52;18.48;;;16.17;;
10947;SDS011;5526;42.070;24.752;2022-12-29T04:14:19;20.05;;;16.25;;
10947;SDS011;5526;42.070;24.752;2022-12-29T04:16:47;18.17;;;15.93;;
10947;SDS011;5526;42.070;24.752;2022-12-29T04:19:15;17.20;;;15.40;;
10947;SDS011;5526;42.070;24.752;2022-12-29T04:21:43;21.27;;;16.17;;
10947;SDS011;5526;42.070;24.752;2022-12-29T04:24:12;20.27;;;16.67;;
10947;SDS011;5526;42.070;24.752;2022-12-29T04:26:40;18.45;;;16.33;;
10947;SDS011;5526;42.070;24.752;2022-12-29T04:29:08;18.98;;;16.75;;
10947;SDS011;5526;42.070;24.752;2022-12-29T04:31:36;19.38;;;15.95;;
10947;SDS011;5526;42.070;24.752;2022-12-29T04:34:04;23.77;;;18.02;;
10947;SDS011;5526;42.070;24.752;2022-12-29T04:36:35;24.08;;;19.15;;
10947;SDS011;5526;42.070;24.752;2022-12-29T04:39:05;24.58;;;19.73;;
10947;SDS011;5526;42.070;24.752;2022-12-29T04:41:34;22.20;;;18.90;;
10947;SDS011;5526;42.070;24.752;2022-12-29T04:44:02;23.25;;;18.58;;
10947;SDS011;5526;42.070;24.752;2022-12-29T04:46:30;21.60;;;18.70;;
10947;SDS011;5526;42.070;24.752;2022-12-29T04:48:58;24.40;;;20.63;;
10947;SDS011;5526;42.070;24.752;2022-12-29T04:51:33;26.10;;;20.70;;
10947;SDS011;5526;42.070;24.752;2022-12-29T04:54:01;24.83;;;21.17;;
10947;SDS011;5526;42.070;24.752;2022-12-29T04:56:29;26.98;;;21.27;;
10947;SDS011;5526;42.070;24.752;2022-12-29T04:59:00;25.00;;;20.83;;
10947;SDS011;5526;42.070;24.752;2022-12-29T05:01:28;30.20;;;23.40;;
10947;SDS011;5526;42.070;24.752;2022-12-29T05:03:56;35.25;;;26.08;;
10947;SDS011;5526;42.070;24.752;2022-12-29T05:06:23;34.35;;;27.92;;
10947;SDS011;5526;42.070;24.752;2022-12-29T05:08:51;32.45;;;26.98;;
10947;SDS011;5526;42.070;24.752;2022-12-29T05:11:19;34.45;;;27.98;;
10947;SDS011;5526;42.070;24.752;2022-12-29T05:13:47;27.75;;;23.65;;
10947;SDS011;5526;42.070;24.752;2022-12-29T05:16:16;46.40;;;35.00;;
10947;SDS011;5526;42.070;24.752;2022-12-29T05:18:44;51.22;;;37.13;;
10947;SDS011;5526;42.070;24.752;2022-12-29T05:21:12;44.00;;;34.20;;
10947;SDS011;5526;42.070;24.752;2022-12-29T05:23:40;38.05;;;29.38;;
10947;SDS011;5526;42.070;24.752;2022-12-29T05:26:07;36.67;;;27.80;;
10947;SDS011;5526;42.070;24.752;2022-12-29T05:28:35;38.97;;;29.70;;
10947;SDS011;5526;42.070;24.752;2022-12-29T05:31:03;38.25;;;30.30;;
10947;SDS011;5526;42.070;24.752;2022-12-29T05:33:33;35.70;;;27.45;;
10947;SDS011;5526;42.070;24.752;2022-12-29T05:36:03;30.00;;;24.58;;
10947;SDS011;5526;42.070;24.752;2022-12-29T05:38:31;28.08;;;22.52;;
10947;SDS011;5526;42.070;24.752;2022-12-29T05:40:59;26.85;;;20.55;;
10947;SDS011;5526;42.070;24.752;2022-12-29T05:43:27;23.63;;;19.00;;
10947;SDS011;5526;42.070;24.752;2022-12-29T05:45:55;20.70;;;17.92;;
10947;SDS011;5526;42.070;24.752;2022-12-29T05:48:24;22.50;;;18.55;;
10947;SDS011;5526;42.070;24.752;2022-12-29T05:50:53;21.70;;;18.48;;
10947;SDS011;5526;42.070;24.752;2022-12-29T05:53:21;22.52;;;18.70;;
10947;SDS011;5526;42.070;24.752;2022-12-29T05:55:49;22.67;;;18.33;;
10947;SDS011;5526;42.070;24.752;2022-12-29T05:58:17;21.05;;;17.88;;
10947;SDS011;5526;42.070;24.752;2022-12-29T06:00:45;20.92;;;17.42;;
10947;SDS011;5526;42.070;24.752;2022-12-29T06:03:13;22.38;;;18.73;;
10947;SDS011;5526;42.070;24.752;2022-12-29T06:05:41;22.65;;;18.67;;
10947;SDS011;5526;42.070;24.752;2022-12-29T06:08:10;23.55;;;20.15;;
10947;SDS011;5526;42.070;24.752;2022-12-29T06:10:38;27.45;;;21.23;;
10947;SDS011;5526;42.070;24.752;2022-12-29T06:13:06;27.33;;;21.42;;
10947;SDS011;5526;42.070;24.752;2022-12-29T06:15:34;29.42;;;22.50;;
10947;SDS011;5526;42.070;24.752;2022-12-29T06:18:02;26.45;;;22.48;;
10947;SDS011;5526;42.070;24.752;2022-12-29T06:20:30;27.67;;;23.23;;
10947;SDS011;5526;42.070;24.752;2022-12-29T06:22:58;27.48;;;23.15;;
10947;SDS011;5526;42.070;24.752;2022-12-29T06:25:28;29.08;;;23.23;;
10947;SDS011;5526;42.070;24.752;2022-12-29T06:27:57;26.25;;;22.33;;
10947;SDS011;5526;42.070;24.752;2022-12-29T06:30:25;32.40;;;25.13;;
10947;SDS011;5526;42.070;24.752;2022-12-29T06:32:53;29.70;;;23.73;;
10947;SDS011;5526;42.070;24.752;2022-12-29T06:35:21;28.90;;;24.20;;
10947;SDS011;5526;42.070;24.752;2022-12-29T06:37:49;30.27;;;24.92;;
10947;SDS011;5526;42.070;24.752;2022-12-29T06:40:17;32.05;;;25.75;;
10947;SDS011;5526;42.070;24.752;2022-12-29T06:42:46;29.02;;;24.55;;
10947;SDS011;5526;42.070;24.752;2022-12-29T06:45:14;32.72;;;26.10;;
10947;SDS011;5526;42.070;24.752;2022-12-29T06:47:42;30.60;;;25.77;;
10947;SDS011;5526;42.070;24.752;2022-12-29T06:50:10;37.55;;;28.80;;
10947;SDS011;5526;42.070;24.752;2022-12-29T06:52:38;36.30;;;29.85;;
10947;SDS011;5526;42.070;24.752;2022-12-29T06:55:06;35.85;;;28.98;;
10947;SDS011;5526;42.070;24.752;2022-12-29T06:57:34;39.17;;;31.27;;
10947;SDS011;5526;42.070;24.752;2022-12-29T07:00:05;47.25;;;33.78;;
10947;SDS011;5526;42.070;24.752;2022-12-29T07:02:34;31.92;;;26.83;;
10947;SDS011;5526;42.070;24.752;2022-12-29T07:05:02;28.20;;;23.80;;
10947;SDS011;5526;42.070;24.752;2022-12-29T07:07:30;27.25;;;23.90;;
10947;SDS011;5526;42.070;24.752;2022-12-29T07:09:58;27.30;;;23.35;;
10947;SDS011;5526;42.070;24.752;2022-12-29T07:12:26;28.10;;;24.38;;
10947;SDS011;5526;42.070;24.752;2022-12-29T07:14:54;29.77;;;23.38;;
10947;SDS011;5526;42.070;24.752;2022-12-29T07:17:23;30.48;;;24.80;;
10947;SDS011;5526;42.070;24.752;2022-12-29T07:19:51;30.20;;;25.35;;
10947;SDS011;5526;42.070;24.752;2022-12-29T07:22:19;34.00;;;27.23;;
10947;SDS011;5526;42.070;24.752;2022-12-29T07:24:47;33.40;;;27.73;;
10947;SDS011;5526;42.070;24.752;2022-12-29T07:27:15;29.70;;;25.02;;
10947;SDS011;5526;42.070;24.752;2022-12-29T07:29:42;30.02;;;24.90;;
10947;SDS011;5526;42.070;24.752;2022-12-29T07:32:10;28.70;;;23.05;;
10947;SDS011;5526;42.070;24.752;2022-12-29T07:34:40;26.13;;;22.38;;
10947;SDS011;5526;42.070;24.752;2022-12-29T07:37:10;27.75;;;22.52;;
10947;SDS011;5526;42.070;24.752;2022-12-29T07:39:39;24.48;;;21.33;;
10947;SDS011;5526;42.070;24.752;2022-12-29T07:42:07;26.67;;;22.65;;
10947;SDS011;5526;42.070;24.752;2022-12-29T07:44:35;30.35;;;23.42;;
10947;SDS011;5526;42.070;24.752;2022-12-29T07:47:03;25.77;;;21.83;;
10947;SDS011;5526;42.070;24.752;2022-12-29T07:49:31;24.30;;;20.25;;
10947;SDS011;5526;42.070;24.752;2022-12-29T07:52:00;25.02;;;21.15;;
10947;SDS011;5526;42.070;24.752;2022-12-29T07:54:28;23.45;;;19.35;;
10947;SDS011;5526;42.070;24.752;2022-12-29T07:56:57;25.65;;;19.33;;
10947;SDS011;5526;42.070;24.752;2022-12-29T07:59:25;24.15;;;19.83;;
10947;SDS011;5526;42.070;24.752;2022-12-29T08:01:53;25.45;;;20.50;;
10947;SDS011;5526;42.070;24.752;2022-12-29T08:04:21;26.60;;;20.33;;
10947;SDS011;5526;42.070;24.752;2022-12-29T08:06:49;23.63;;;21.02;;
10947;SDS011;5526;42.070;24.752;2022-12-29T08:09:19;23.67;;;20.23;;
10947;SDS011;5526;42.070;24.752;2022-12-29T08:11:46;26.88;;;20.75;;
10947;SDS011;5526;42.070;24.752;2022-12-29T08:14:14;23.05;;;20.48;;
10947;SDS011;5526;42.070;24.752;2022-12-29T08:16:42;22.90;;;20.45;;
10947;SDS011;5526;42.070;24.752;2022-12-29T08:19:10;24.30;;;20.90;;
10947;SDS011;5526;42.070;24.752;2022-12-29T08:21:38;24.48;;;21.48;;
10947;SDS011;5526;42.070;24.752;2022-12-29T08:24:07;25.05;;;20.60;;
10947;SDS011;5526;42.070;24.752;2022-12-29T08:26:37;24.85;;;21.27;;
10947;SDS011;5526;42.070;24.752;2022-12-29T08:29:05;24.20;;;20.35;;
10947;SDS011;5526;42.070;24.752;2022-12-29T08:31:33;23.33;;;20.77;;
10947;SDS011;5526;42.070;24.752;2022-12-29T08:34:00;26.30;;;22.02;;
10947;SDS011;5526;42.070;24.752;2022-12-29T08:36:28;23.67;;;21.10;;
10947;SDS011;5526;42.070;24.752;2022-12-29T08:38:56;22.65;;;19.42;;
10947;SDS011;5526;42.070;24.752;2022-12-29T08:41:24;24.38;;;19.33;;
10947;SDS011;5526;42.070;24.752;2022-12-29T08:43:54;25.67;;;19.92;;
10947;SDS011;5526;42.070;24.752;2022-12-29T08:46:22;23.00;;;20.60;;
10947;SDS011;5526;42.070;24.752;2022-12-29T08:48:50;22.67;;;19.80;;
10947;SDS011;5526;42.070;24.752;2022-12-29T08:51:18;23.77;;;20.75;;
10947;SDS011;5526;42.070;24.752;2022-12-29T08:53:46;23.92;;;20.60;;
10947;SDS011;5526;42.070;24.752;2022-12-29T08:56:14;24.38;;;19.23;;
10947;SDS011;5526;42.070;24.752;2022-12-29T08:58:41;24.67;;;19.20;;
10947;SDS011;5526;42.070;24.752;2022-12-29T09:01:11;24.48;;;19.40;;
10947;SDS011;5526;42.070;24.752;2022-12-29T09:03:39;25.73;;;20.35;;
10947;SDS011;5526;42.070;24.752;2022-12-29T09:06:07;22.33;;;19.27;;
10947;SDS011;5526;42.070;24.752;2022-12-29T09:08:36;20.95;;;18.45;;
10947;SDS011;5526;42.070;24.752;2022-12-29T09:11:07;21.75;;;18.48;;
10947;SDS011;5526;42.070;24.752;2022-12-29T09:13:35;21.73;;;18.50;;
10947;SDS011;5526;42.070;24.752;2022-12-29T09:16:04;19.75;;;17.65;;
10947;SDS011;5526;42.070;24.752;2022-12-29T09:18:34;22.95;;;18.30;;
10947;SDS011;5526;42.070;24.752;2022-12-29T09:21:04;19.85;;;17.45;;
10947;SDS011;5526;42.070;24.752;2022-12-29T09:23:33;21.50;;;18.88;;
10947;SDS011;5526;42.070;24.752;2022-12-29T09:26:01;21.02;;;18.73;;
10947;SDS011;5526;42.070;24.752;2022-12-29T09:28:30;27.98;;;23.58;;
10947;SDS011;5526;42.070;24.752;2022-12-29T09:30:58;25.58;;;20.50;;
10947;SDS011;5526;42.070;24.752;2022-12-29T09:33:26;25.15;;;20.38;;
10947;SDS011;5526;42.070;24.752;2022-12-29T09:35:57;25.60;;;20.63;;
10947;SDS011;5526;42.070;24.752;2022-12-29T09:38:26;21.50;;;18.85;;
10947;SDS011;5526;42.070;24.752;2022-12-29T09:40:55;25.65;;;21.30;;
10947;SDS011;5526;42.070;24.752;2022-12-29T09:43:41;25.15;;;22.17;;
10947;SDS011;5526;42.070;24.752;2022-12-29T09:46:23;27.55;;;22.23;;
10947;SDS011;5526;42.070;24.752;2022-12-29T09:48:54;32.20;;;22.88;;
10947;SDS011;5526;42.070;24.752;2022-12-29T09:51:33;27.30;;;22.42;;
10947;SDS011;5526;42.070;24.752;2022-12-29T09:54:13;25.33;;;21.25;;
10947;SDS011;5526;42.070;24.752;2022-12-29T09:56:50;24.55;;;19.77;;
10947;SDS011;5526;42.070;24.752;2022-12-29T09:59:20;25.13;;;21.02;;
10947;SDS011;5526;42.070;24.752;2022-12-29T10:01:53;21.23;;;18.35;;
10947;SDS011;5526;42.070;24.752;2022-12-29T10:04:25;24.75;;;19.85;;
10947;SDS011;5526;42.070;24.752;2022-12-29T10:06:56;25.05;;;20.30;;
10947;SDS011;5526;42.070;24.752;2022-12-29T10:09:31;20.08;;;17.13;;
10947;SDS011;5526;42.070;24.752;2022-12-29T10:12:09;22.30;;;18.30;;
10947;SDS011;5526;42.070;24.752;2022-12-29T10:14:53;24.27;;;20.05;;
10947;SDS011;5526;42.070;24.752;2022-12-29T10:17:31;23.02;;;18.40;;
10947;SDS011;5526;42.070;24.752;2022-12-29T10:20:21;23.67;;;18.50;;
10947;SDS011;5526;42.070;24.752;2022-12-29T10:23:04;25.63;;;19.83;;
10947;SDS011;5526;42.070;24.752;2022-12-29T10:25:48;27.65;;;21.35;;
10947;SDS011;5526;42.070;24.752;2022-12-29T10:28:21;24.33;;;19.83;;
10947;SDS011;5526;42.070;24.752;2022-12-29T10:30:51;24.48;;;19.95;;
10947;SDS011;5526;42.070;24.752;2022-12-29T10:33:26;23.27;;;19.63;;
10947;SDS011;5526;42.070;24.752;2022-12-29T10:35:59;25.17;;;20.42;;
10947;SDS011;5526;42.070;24.752;2022-12-29T10:38:34;23.73;;;20.75;;
10947;SDS011;5526;42.070;24.752;2022-12-29T10:41:08;23.13;;;19.23;;
10947;SDS011;5526;42.070;24.752;2022-12-29T10:43:43;25.40;;;20.98;;
10947;SDS011;5526;42.070;24.752;2022-12-29T10:46:14;23.70;;;20.33;;
10947;SDS011;5526;42.070;24.752;2022-12-29T10:48:46;25.73;;;20.77;;
10947;SDS011;5526;42.070;24.752;2022-12-29T10:51:17;22.55;;;19.35;;
10947;SDS011;5526;42.070;24.752;2022-12-29T10:53:50;24.15;;;19.65;;
10947;SDS011;5526;42.070;24.752;2022-12-29T10:56:27;22.63;;;20.23;;
10947;SDS011;5526;42.070;24.752;2022-12-29T10:59:00;22.52;;;20.15;;
10947;SDS011;5526;42.070;24.752;2022-12-29T11:01:37;25.92;;;19.95;;
10947;SDS011;5526;42.070;24.752;2022-12-29T11:04:16;25.20;;;20.80;;
10947;SDS011;5526;42.070;24.752;2022-12-29T11:07:00;24.92;;;20.38;;
10947;SDS011;5526;42.070;24.752;2022-12-29T11:09:31;22.55;;;19.70;;
10947;SDS011;5526;42.070;24.752;2022-12-29T11:12:10;25.25;;;19.60;;
10947;SDS011;5526;42.070;24.752;2022-12-29T11:14:46;22.83;;;18.20;;
10947;SDS011;5526;42.070;24.752;2022-12-29T11:17:14;21.33;;;17.83;;
10947;SDS011;5526;42.070;24.752;2022-12-29T11:19:43;21.27;;;17.90;;
10947;SDS011;5526;42.070;24.752;2022-12-29T11:22:12;21.90;;;18.15;;
10947;SDS011;5526;42.070;24.752;2022-12-29T11:24:51;20.27;;;16.75;;
10947;SDS011;5526;42.070;24.752;2022-12-29T11:27:21;20.90;;;17.67;;
10947;SDS011;5526;42.070;24.752;2022-12-29T11:29:50;18.65;;;16.65;;
10947;SDS011;5526;42.070;24.752;2022-12-29T11:32:20;19.25;;;17.23;;
10947;SDS011;5526;42.070;24.752;2022-12-29T11:34:49;18.70;;;16.67;;
10947;SDS011;5526;42.070;24.752;2022-12-29T11:37:17;18.52;;;16.63;;
10947;SDS011;5526;42.070;24.752;2022-12-29T11:39:50;18.70;;;16.75;;
10947;SDS011;5526;42.070;24.752;2022-12-29T11:42:23;18.15;;;16.33;;
10947;SDS011;5526;42.070;24.752;2022-12-29T11:44:58;18.58;;;16.63;;
10947;SDS011;5526;42.070;24.752;2022-12-29T11:47:32;20.67;;;17.10;;
10947;SDS011;5526;42.070;24.752;2022-12-29T11:50:02;19.17;;;17.00;;
10947;SDS011;5526;42.070;24.752;2022-12-29T11:52:33;22.38;;;17.80;;
10947;SDS011;5526;42.070;24.752;2022-12-29T11:55:12;22.67;;;18.30;;
10947;SDS011;5526;42.070;24.752;2022-12-29T11:57:45;21.83;;;17.02;;
10947;SDS011;5526;42.070;24.752;2022-12-29T12:00:14;21.73;;;18.48;;
10947;SDS011;5526;42.070;24.752;2022-12-29T12:02:46;21.38;;;18.92;;
10947;SDS011;5526;42.070;24.752;2022-12-29T12:05:24;21.00;;;18.73;;
10947;SDS011;5526;42.070;24.752;2022-12-29T12:08:02;19.58;;;17.35;;
10947;SDS011;5526;42.070;24.752;2022-12-29T12:10:38;21.05;;;18.50;;
10947;SDS011;5526;42.070;24.752;2022-12-29T12:13:20;21.40;;;18.38;;
10947;SDS011;5526;42.070;24.752;2022-12-29T12:15:56;22.63;;;18.63;;
10947;SDS011;5526;42.070;24.752;2022-12-29T12:18:34;22.10;;;18.30;;
10947;SDS011;5526;42.070;24.752;2022-12-29T12:21:15;21.02;;;18.77;;
10947;SDS011;5526;42.070;24.752;2022-12-29T12:23:57;21.65;;;17.95;;
10947;SDS011;5526;42.070;24.752;2022-12-29T12:26:39;22.05;;;18.70;;
10947;SDS011;5526;42.070;24.752;2022-12-29T12:29:19;22.73;;;19.48;;
10947;SDS011;5526;42.070;24.752;2022-12-29T12:31:54;24.55;;;20.05;;
10947;SDS011;5526;42.070;24.752;2022-12-29T12:34:27;20.73;;;18.63;;
10947;SDS011;5526;42.070;24.752;2022-12-29T12:37:14;21.13;;;18.98;;
10947;SDS011;5526;42.070;24.752;2022-12-29T12:39:59;24.33;;;20.05;;
10947;SDS011;5526;42.070;24.752;2022-12-29T12:43:01;23.40;;;18.63;;
10947;SDS011;5526;42.070;24.752;2022-12-29T12:45:47;21.20;;;18.50;;
10947;SDS011;5526;42.070;24.752;2022-12-29T12:48:28;23.65;;;19.50;;
10947;SDS011;5526;42.070;24.752;2022-12-29T12:51:10;21.13;;;18.83;;
10947;SDS011;5526;42.070;24.752;2022-12-29T12:53:49;21.30;;;18.88;;
10947;SDS011;5526;42.070;24.752;2022-12-29T12:56:41;22.63;;;18.85;;
10947;SDS011;5526;42.070;24.752;2022-12-29T12:59:25;23.30;;;18.85;;
10947;SDS011;5526;42.070;24.752;2022-12-29T13:02:09;24.50;;;19.40;;
10947;SDS011;5526;42.070;24.752;2022-12-29T13:07:47;25.02;;;19.52;;
10947;SDS011;5526;42.070;24.752;2022-12-29T13:10:37;25.05;;;19.40;;
10947;SDS011;5526;42.070;24.752;2022-12-29T13:13:25;22.95;;;18.90;;
10947;SDS011;5526;42.070;24.752;2022-12-29T13:16:10;24.55;;;19.20;;
10947;SDS011;5526;42.070;24.752;2022-12-29T13:18:48;23.33;;;19.00;;
10947;SDS011;5526;42.070;24.752;2022-12-29T13:21:27;24.45;;;20.05;;
10947;SDS011;5526;42.070;24.752;2022-12-29T13:24:06;24.80;;;19.67;;
10947;SDS011;5526;42.070;24.752;2022-12-29T13:26:44;29.42;;;20.23;;
10947;SDS011;5526;42.070;24.752;2022-12-29T13:29:16;25.45;;;20.23;;
10947;SDS011;5526;42.070;24.752;2022-12-29T13:31:52;28.40;;;20.42;;
10947;SDS011;5526;42.070;24.752;2022-12-29T13:34:29;24.45;;;20.58;;
10947;SDS011;5526;42.070;24.752;2022-12-29T13:37:08;22.52;;;19.38;;
10947;SDS011;5526;42.070;24.752;2022-12-29T13:39:40;22.60;;;19.90;;
10947;SDS011;5526;42.070;24.752;2022-12-29T13:42:13;33.90;;;21.30;;
10947;SDS011;5526;42.070;24.752;2022-12-29T13:44:43;32.75;;;20.75;;
10947;SDS011;5526;42.070;24.752;2022-12-29T13:47:19;24.65;;;20.10;;
10947;SDS011;5526;42.070;24.752;2022-12-29T13:49:52;25.55;;;18.83;;
10947;SDS011;5526;42.070;24.752;2022-12-29T13:52:22;21.65;;;19.42;;
10947;SDS011;5526;42.070;24.752;2022-12-29T13:55:00;22.08;;;18.73;;
10947;SDS011;5526;42.070;24.752;2022-12-29T13:57:47;34.35;;;20.70;;
10947;SDS011;5526;42.070;24.752;2022-12-29T14:00:20;26.08;;;19.08;;
10947;SDS011;5526;42.070;24.752;2022-12-29T14:02:58;25.80;;;20.20;;
10947;SDS011;5526;42.070;24.752;2022-12-29T14:05:39;24.85;;;21.75;;
10947;SDS011;5526;42.070;24.752;2022-12-29T14:08:14;27.08;;;21.98;;
10947;SDS011;5526;42.070;24.752;2022-12-29T14:10:45;28.58;;;22.55;;
10947;SDS011;5526;42.070;24.752;2022-12-29T14:13:17;28.55;;;23.33;;
10947;SDS011;5526;42.070;24.752;2022-12-29T14:15:50;30.58;;;23.95;;
10947;SDS011;5526;42.070;24.752;2022-12-29T14:18:23;32.38;;;23.40;;
10947;SDS011;5526;42.070;24.752;2022-12-29T14:20:54;31.65;;;24.67;;
10947;SDS011;5526;42.070;24.752;2022-12-29T14:23:27;30.55;;;26.13;;
10947;SDS011;5526;42.070;24.752;2022-12-29T14:26:16;33.83;;;27.08;;
10947;SDS011;5526;42.070;24.752;2022-12-29T14:32:01;37.60;;;30.15;;
10947;SDS011;5526;42.070;24.752;2022-12-29T14:34:33;42.88;;;34.10;;
10947;SDS011;5526;42.070;24.752;2022-12-29T14:37:17;47.67;;;38.15;;
10947;SDS011;5526;42.070;24.752;2022-12-29T14:40:02;49.05;;;37.33;;
10947;SDS011;5526;42.070;24.752;2022-12-29T14:42:32;51.45;;;41.22;;
10947;SDS011;5526;42.070;24.752;2022-12-29T14:45:01;51.20;;;42.40;;
10947;SDS011;5526;42.070;24.752;2022-12-29T14:47:34;54.45;;;43.95;;
10947;SDS011;5526;42.070;24.752;2022-12-29T14:50:07;49.30;;;41.75;;
10947;SDS011;5526;42.070;24.752;2022-12-29T14:52:43;47.78;;;39.53;;
10947;SDS011;5526;42.070;24.752;2022-12-29T14:55:32;56.60;;;44.25;;
10947;SDS011;5526;42.070;24.752;2022-12-29T14:58:06;53.60;;;43.83;;
10947;SDS011;5526;42.070;24.752;2022-12-29T15:00:41;51.25;;;42.35;;
10947;SDS011;5526;42.070;24.752;2022-12-29T15:03:13;49.70;;;40.70;;
10947;SDS011;5526;42.070;24.752;2022-12-29T15:05:47;45.92;;;37.13;;